BAW429 EHAM-EGLL
Flight info
| Callsign | BAW429 |
|---|---|
| Flight time | 0h 55m |
| Altitude | 24000 |
| Route | IDRID L980 LOGAN |
| Aircraft | A20N/M-SDGHIJ1LRWXY/SB1 |
Departure
| Time | 2026-05-06 19:19 |
|---|---|
| Airport | Amsterdam Airport Schiphol (EHAM) |
Arrival
| Time | 2026-05-06 20:14 |
|---|---|
| Airport | London Heathrow Airport (EGLL) |
| Time | Latitude | Longitude | Altitude | Speed | Heading |
|---|---|---|---|---|---|
| 2026-05-06 18:52 | 52.30709 | 4.77156 | -1 ft | 0 kts | 2° |
| 2026-05-06 19:02 | 52.30697 | 4.77155 | -1 ft | 2 kts | 3° |
| 2026-05-06 19:02 | 52.30681 | 4.77153 | -1 ft | 2 kts | 5° |
| 2026-05-06 19:03 | 52.30665 | 4.77150 | -1 ft | 2 kts | 13° |
| 2026-05-06 19:03 | 52.30650 | 4.77138 | -1 ft | 2 kts | 76° |
| 2026-05-06 19:03 | 52.30649 | 4.77122 | -1 ft | 1 kts | 93° |
| 2026-05-06 19:05 | 52.30649 | 4.77128 | -1 ft | 3 kts | 93° |
| 2026-05-06 19:05 | 52.30647 | 4.77192 | -1 ft | 0 kts | 93° |
| 2026-05-06 19:06 | 52.30642 | 4.77231 | -1 ft | 2 kts | 115° |
| 2026-05-06 19:06 | 52.30627 | 4.77252 | -1 ft | 7 kts | 147° |
| 2026-05-06 19:06 | 52.30578 | 4.77255 | -1 ft | 10 kts | 224° |
| 2026-05-06 19:06 | 52.30540 | 4.77155 | -1 ft | 12 kts | 240° |
| 2026-05-06 19:07 | 52.30489 | 4.77024 | -1 ft | 13 kts | 237° |
| 2026-05-06 19:07 | 52.30454 | 4.76936 | -1 ft | 16 kts | 237° |
| 2026-05-06 19:07 | 52.30391 | 4.76770 | -1 ft | 14 kts | 238° |
| 2026-05-06 19:07 | 52.30335 | 4.76625 | -1 ft | 16 kts | 238° |
| 2026-05-06 19:08 | 52.30272 | 4.76459 | -1 ft | 18 kts | 238° |
| 2026-05-06 19:08 | 52.30202 | 4.76278 | -1 ft | 20 kts | 238° |
| 2026-05-06 19:08 | 52.30136 | 4.76106 | -1 ft | 18 kts | 238° |
| 2026-05-06 19:08 | 52.30068 | 4.75929 | -1 ft | 21 kts | 236° |
| 2026-05-06 19:09 | 52.30014 | 4.75787 | -1 ft | 22 kts | 238° |
| 2026-05-06 19:10 | 52.29968 | 4.75668 | -1 ft | 17 kts | 237° |
| 2026-05-06 19:10 | 52.29906 | 4.75506 | -1 ft | 18 kts | 238° |
| 2026-05-06 19:11 | 52.29841 | 4.75331 | -1 ft | 18 kts | 245° |
| 2026-05-06 19:11 | 52.29845 | 4.75195 | -1 ft | 12 kts | 304° |
| 2026-05-06 19:11 | 52.29901 | 4.75089 | -1 ft | 8 kts | 311° |
| 2026-05-06 19:11 | 52.29934 | 4.75028 | -1 ft | 13 kts | 310° |
| 2026-05-06 19:12 | 52.29942 | 4.75011 | -1 ft | 14 kts | 310° |
| 2026-05-06 19:12 | 52.30019 | 4.74868 | -1 ft | 19 kts | 313° |
| 2026-05-06 19:12 | 52.30112 | 4.74697 | 5 ft | 20 kts | 310° |
| 2026-05-06 19:13 | 52.30174 | 4.74582 | 10 ft | 5 kts | 311° |
| 2026-05-06 19:13 | 52.30188 | 4.74556 | 10 ft | 6 kts | 311° |
| 2026-05-06 19:13 | 52.30229 | 4.74478 | 10 ft | 13 kts | 311° |
| 2026-05-06 19:14 | 52.30302 | 4.74344 | 6 ft | 21 kts | 311° |
| 2026-05-06 19:14 | 52.30372 | 4.74176 | -1 ft | 16 kts | 279° |
| 2026-05-06 19:14 | 52.30318 | 4.74028 | -1 ft | 10 kts | 219° |
| 2026-05-06 19:14 | 52.30299 | 4.74006 | -1 ft | 0 kts | 215° |
| 2026-05-06 19:15 | 52.30295 | 4.74002 | -1 ft | 3 kts | 215° |
| 2026-05-06 19:15 | 52.30271 | 4.73974 | -1 ft | 9 kts | 215° |
| 2026-05-06 19:16 | 52.30228 | 4.73924 | -2 ft | 14 kts | 216° |
| 2026-05-06 19:16 | 52.30202 | 4.73892 | -2 ft | 17 kts | 217° |
| 2026-05-06 19:17 | 52.30189 | 4.73872 | -2 ft | 1 kts | 228° |
| 2026-05-06 19:18 | 52.30187 | 4.73822 | -2 ft | 10 kts | 272° |
| 2026-05-06 19:18 | 52.30251 | 4.73743 | -4 ft | 12 kts | 2° |
| 2026-05-06 19:18 | 52.30317 | 4.73748 | -5 ft | 27 kts | 4° |
| 2026-05-06 19:18 | 52.30752 | 4.73790 | -1 ft | 95 kts | 3° |
| 2026-05-06 19:19 | 52.31592 | 4.73869 | 7 ft | 143 kts | 4° |
| 2026-05-06 19:19 | 52.32511 | 4.73957 | 591 ft | 137 kts | 5° |
| 2026-05-06 19:19 | 52.33489 | 4.74046 | 1146 ft | 146 kts | 3° |
| 2026-05-06 19:19 | 52.34551 | 4.73632 | 1526 ft | 168 kts | 344° |
| 2026-05-06 19:20 | 52.35702 | 4.72919 | 1914 ft | 186 kts | 343° |
| 2026-05-06 19:20 | 52.36979 | 4.72131 | 2201 ft | 207 kts | 343° |
| 2026-05-06 19:20 | 52.38269 | 4.70784 | 2529 ft | 239 kts | 314° |
| 2026-05-06 19:20 | 52.39046 | 4.68220 | 3123 ft | 266 kts | 282° |
| 2026-05-06 19:21 | 52.38936 | 4.65225 | 4190 ft | 272 kts | 253° |
| 2026-05-06 19:21 | 52.37998 | 4.62526 | 5318 ft | 278 kts | 231° |
| 2026-05-06 19:21 | 52.36739 | 4.60100 | 6454 ft | 280 kts | 230° |
| 2026-05-06 19:21 | 52.35533 | 4.57601 | 7570 ft | 280 kts | 234° |
| 2026-05-06 19:22 | 52.34801 | 4.55862 | 8303 ft | 281 kts | 238° |
| 2026-05-06 19:22 | 52.33774 | 4.53111 | 9402 ft | 284 kts | 241° |
| 2026-05-06 19:22 | 52.32811 | 4.50273 | 10388 ft | 290 kts | 243° |
| 2026-05-06 19:22 | 52.31831 | 4.47257 | 10887 ft | 312 kts | 243° |
| 2026-05-06 19:23 | 52.30789 | 4.44007 | 11349 ft | 332 kts | 244° |
| 2026-05-06 19:23 | 52.29701 | 4.40626 | 12197 ft | 338 kts | 243° |
| 2026-05-06 19:23 | 52.28595 | 4.37208 | 13182 ft | 341 kts | 243° |
| 2026-05-06 19:23 | 52.27480 | 4.33777 | 14108 ft | 343 kts | 243° |
| 2026-05-06 19:24 | 52.26352 | 4.30311 | 14962 ft | 347 kts | 243° |
| 2026-05-06 19:24 | 52.25214 | 4.26821 | 15819 ft | 349 kts | 243° |
| 2026-05-06 19:24 | 52.24098 | 4.23398 | 16612 ft | 353 kts | 243° |
| 2026-05-06 19:24 | 52.22953 | 4.19898 | 17412 ft | 356 kts | 243° |
| 2026-05-06 19:25 | 52.21778 | 4.16309 | 18223 ft | 360 kts | 243° |
| 2026-05-06 19:25 | 52.20592 | 4.12690 | 18935 ft | 363 kts | 243° |
| 2026-05-06 19:25 | 52.19394 | 4.09042 | 19640 ft | 366 kts | 243° |
| 2026-05-06 19:25 | 52.18188 | 4.05375 | 20331 ft | 370 kts | 243° |
| 2026-05-06 19:26 | 52.16964 | 4.01660 | 21017 ft | 373 kts | 242° |
| 2026-05-06 19:26 | 52.15731 | 3.97924 | 21722 ft | 376 kts | 242° |
| 2026-05-06 19:26 | 52.14484 | 3.94151 | 22388 ft | 380 kts | 242° |
| 2026-05-06 19:26 | 52.13224 | 3.90348 | 23057 ft | 383 kts | 242° |
| 2026-05-06 19:27 | 52.11951 | 3.86509 | 23589 ft | 388 kts | 242° |
| 2026-05-06 19:27 | 52.10659 | 3.82618 | 23696 ft | 389 kts | 242° |
| 2026-05-06 19:27 | 52.09374 | 3.78758 | 23795 ft | 386 kts | 242° |
| 2026-05-06 19:27 | 52.08110 | 3.74967 | 23884 ft | 387 kts | 242° |
| 2026-05-06 19:28 | 52.06818 | 3.71098 | 23959 ft | 391 kts | 242° |
| 2026-05-06 19:28 | 52.05521 | 3.67220 | 23965 ft | 390 kts | 242° |
| 2026-05-06 19:28 | 52.04227 | 3.63358 | 23963 ft | 388 kts | 242° |
| 2026-05-06 19:28 | 52.02935 | 3.59506 | 23965 ft | 388 kts | 242° |
| 2026-05-06 19:29 | 52.01642 | 3.55655 | 23963 ft | 390 kts | 242° |
| 2026-05-06 19:29 | 52.00339 | 3.51784 | 23962 ft | 390 kts | 242° |
| 2026-05-06 19:29 | 51.98910 | 3.48047 | 23962 ft | 389 kts | 236° |
| 2026-05-06 19:29 | 51.97301 | 3.44497 | 23961 ft | 390 kts | 234° |
| 2026-05-06 19:30 | 51.95701 | 3.40970 | 23963 ft | 390 kts | 235° |
| 2026-05-06 19:30 | 51.94104 | 3.37438 | 23962 ft | 391 kts | 234° |
| 2026-05-06 19:30 | 51.92474 | 3.33835 | 23961 ft | 391 kts | 234° |
| 2026-05-06 19:30 | 51.90866 | 3.30285 | 23962 ft | 391 kts | 234° |
| 2026-05-06 19:31 | 51.89256 | 3.26737 | 23965 ft | 391 kts | 234° |
| 2026-05-06 19:31 | 51.87668 | 3.23246 | 23964 ft | 389 kts | 234° |
| 2026-05-06 19:31 | 51.85105 | 3.15556 | 23961 ft | 391 kts | 252° |
| 2026-05-06 19:32 | 51.84515 | 3.11279 | 23965 ft | 389 kts | 263° |
| 2026-05-06 19:32 | 51.84244 | 3.06926 | 23965 ft | 389 kts | 264° |
| 2026-05-06 19:32 | 51.83972 | 3.02561 | 23966 ft | 392 kts | 264° |
| 2026-05-06 19:32 | 51.83691 | 2.98173 | 23970 ft | 392 kts | 264° |
| 2026-05-06 19:33 | 51.83404 | 2.93792 | 23967 ft | 391 kts | 263° |
| 2026-05-06 19:33 | 51.83116 | 2.89426 | 23969 ft | 390 kts | 263° |
| 2026-05-06 19:33 | 51.82825 | 2.85055 | 23972 ft | 392 kts | 264° |
| 2026-05-06 19:33 | 51.82531 | 2.80661 | 23969 ft | 393 kts | 263° |
| 2026-05-06 19:34 | 51.82235 | 2.76267 | 23975 ft | 393 kts | 263° |
| 2026-05-06 19:34 | 51.81942 | 2.71923 | 23973 ft | 392 kts | 263° |
| 2026-05-06 19:34 | 51.81644 | 2.67534 | 23980 ft | 392 kts | 263° |
| 2026-05-06 19:34 | 51.81344 | 2.63149 | 23976 ft | 393 kts | 263° |
| 2026-05-06 19:35 | 51.81042 | 2.58756 | 23977 ft | 393 kts | 263° |
| 2026-05-06 19:35 | 51.80739 | 2.54367 | 23982 ft | 392 kts | 263° |
| 2026-05-06 19:35 | 51.80434 | 2.49984 | 23977 ft | 393 kts | 263° |
| 2026-05-06 19:35 | 51.80127 | 2.45589 | 23984 ft | 393 kts | 263° |
| 2026-05-06 19:36 | 51.79819 | 2.41211 | 23983 ft | 392 kts | 263° |
| 2026-05-06 19:36 | 51.79510 | 2.36834 | 23985 ft | 393 kts | 263° |
| 2026-05-06 19:36 | 51.79198 | 2.32443 | 23986 ft | 393 kts | 263° |
| 2026-05-06 19:36 | 51.78884 | 2.28050 | 23985 ft | 393 kts | 263° |
| 2026-05-06 19:37 | 51.78573 | 2.23716 | 23987 ft | 393 kts | 263° |
| 2026-05-06 19:37 | 51.78269 | 2.19330 | 23987 ft | 393 kts | 264° |
| 2026-05-06 19:37 | 51.78008 | 2.14931 | 23988 ft | 393 kts | 264° |
| 2026-05-06 19:37 | 51.77760 | 2.10516 | 23991 ft | 393 kts | 264° |
| 2026-05-06 19:38 | 51.77511 | 2.06114 | 23990 ft | 393 kts | 264° |
| 2026-05-06 19:38 | 51.77256 | 2.01721 | 23992 ft | 393 kts | 264° |
| 2026-05-06 19:38 | 51.76995 | 1.97327 | 23992 ft | 393 kts | 264° |
| 2026-05-06 19:38 | 51.76731 | 1.92933 | 23992 ft | 393 kts | 264° |
| 2026-05-06 19:39 | 51.76466 | 1.88581 | 23994 ft | 394 kts | 264° |
| 2026-05-06 19:39 | 51.76197 | 1.84183 | 23993 ft | 394 kts | 264° |
| 2026-05-06 19:39 | 51.75926 | 1.79788 | 23994 ft | 394 kts | 264° |
| 2026-05-06 19:39 | 51.75654 | 1.75386 | 23992 ft | 394 kts | 264° |
| 2026-05-06 19:40 | 51.75380 | 1.70991 | 23994 ft | 394 kts | 264° |
| 2026-05-06 19:40 | 51.75104 | 1.66597 | 23994 ft | 393 kts | 264° |
| 2026-05-06 19:40 | 51.74825 | 1.62188 | 23996 ft | 393 kts | 264° |
| 2026-05-06 19:40 | 51.74544 | 1.57794 | 23996 ft | 394 kts | 264° |
| 2026-05-06 19:41 | 51.74264 | 1.53402 | 23999 ft | 393 kts | 264° |
| 2026-05-06 19:41 | 51.73985 | 1.49020 | 23886 ft | 391 kts | 264° |
| 2026-05-06 19:41 | 51.73705 | 1.44661 | 23414 ft | 391 kts | 264° |
| 2026-05-06 19:41 | 51.73424 | 1.40320 | 22487 ft | 396 kts | 264° |
| 2026-05-06 19:42 | 51.73133 | 1.35866 | 21469 ft | 402 kts | 264° |
| 2026-05-06 19:42 | 51.72839 | 1.31382 | 20786 ft | 398 kts | 264° |
| 2026-05-06 19:42 | 51.72550 | 1.27010 | 20386 ft | 387 kts | 264° |
| 2026-05-06 19:42 | 51.72266 | 1.22735 | 19815 ft | 381 kts | 264° |
| 2026-05-06 19:43 | 51.71982 | 1.18482 | 19113 ft | 380 kts | 264° |
| 2026-05-06 19:43 | 51.71699 | 1.14278 | 18656 ft | 373 kts | 264° |
| 2026-05-06 19:43 | 51.71419 | 1.10138 | 18015 ft | 370 kts | 264° |
| 2026-05-06 19:43 | 51.71141 | 1.06048 | 17590 ft | 361 kts | 264° |
| 2026-05-06 19:44 | 51.70869 | 1.02065 | 17137 ft | 354 kts | 264° |
| 2026-05-06 19:44 | 51.70601 | 0.98147 | 16557 ft | 351 kts | 264° |
| 2026-05-06 19:44 | 51.70334 | 0.94263 | 16339 ft | 349 kts | 264° |
| 2026-05-06 19:44 | 51.70064 | 0.90353 | 16230 ft | 358 kts | 264° |
| 2026-05-06 19:45 | 51.69787 | 0.86370 | 15980 ft | 357 kts | 264° |
| 2026-05-06 19:45 | 51.69508 | 0.82383 | 15571 ft | 355 kts | 264° |
| 2026-05-06 19:45 | 51.69234 | 0.78490 | 15427 ft | 341 kts | 264° |
| 2026-05-06 19:45 | 51.69143 | 0.77209 | 15383 ft | 336 kts | 264° |
| 2026-05-06 19:46 | 51.68891 | 0.73649 | 15256 ft | 323 kts | 264° |
| 2026-05-06 19:46 | 51.68641 | 0.70145 | 15094 ft | 305 kts | 264° |
| 2026-05-06 19:46 | 51.68406 | 0.66852 | 14934 ft | 287 kts | 264° |
| 2026-05-06 19:47 | 51.68183 | 0.63740 | 14806 ft | 274 kts | 264° |
| 2026-05-06 19:47 | 51.67969 | 0.60750 | 14512 ft | 270 kts | 264° |
| 2026-05-06 19:47 | 51.67750 | 0.57711 | 14132 ft | 270 kts | 265° |
| 2026-05-06 19:47 | 51.67534 | 0.54712 | 13781 ft | 269 kts | 265° |
| 2026-05-06 19:48 | 51.67318 | 0.51732 | 13405 ft | 267 kts | 265° |
| 2026-05-06 19:48 | 51.67107 | 0.48840 | 13028 ft | 266 kts | 265° |
| 2026-05-06 19:48 | 51.66889 | 0.45846 | 12659 ft | 264 kts | 265° |
| 2026-05-06 19:48 | 51.66674 | 0.42919 | 12293 ft | 263 kts | 264° |
| 2026-05-06 19:49 | 51.66459 | 0.39996 | 11935 ft | 262 kts | 264° |
| 2026-05-06 19:49 | 51.66245 | 0.37098 | 11576 ft | 260 kts | 264° |
| 2026-05-06 19:49 | 51.66031 | 0.34204 | 11220 ft | 259 kts | 264° |
| 2026-05-06 19:49 | 51.65817 | 0.31328 | 10870 ft | 257 kts | 264° |
| 2026-05-06 19:50 | 51.65604 | 0.28475 | 10526 ft | 256 kts | 264° |
| 2026-05-06 19:50 | 51.65391 | 0.25637 | 10184 ft | 255 kts | 264° |
| 2026-05-06 19:50 | 51.65178 | 0.22803 | 9841 ft | 254 kts | 264° |
| 2026-05-06 19:50 | 51.64965 | 0.19988 | 9475 ft | 252 kts | 264° |
| 2026-05-06 19:51 | 51.64755 | 0.17200 | 9112 ft | 251 kts | 264° |
| 2026-05-06 19:51 | 51.64546 | 0.14438 | 8743 ft | 250 kts | 264° |
| 2026-05-06 19:51 | 51.64483 | 0.13511 | 8624 ft | 250 kts | 265° |
| 2026-05-06 19:52 | 51.64465 | 0.13214 | 8583 ft | 250 kts | 265° |
| 2026-05-06 19:53 | 51.64304 | 0.10219 | 8188 ft | 250 kts | 266° |
| 2026-05-06 19:53 | 51.64169 | 0.07438 | 7820 ft | 249 kts | 266° |
| 2026-05-06 19:53 | 51.64031 | 0.04653 | 7467 ft | 249 kts | 265° |
| 2026-05-06 19:54 | 51.63889 | 0.01887 | 7177 ft | 246 kts | 265° |
| 2026-05-06 19:54 | 51.63747 | -0.00779 | 7068 ft | 243 kts | 264° |
| 2026-05-06 19:54 | 51.63598 | -0.03506 | 7020 ft | 244 kts | 264° |
| 2026-05-06 19:54 | 51.63448 | -0.06223 | 7010 ft | 243 kts | 264° |
| 2026-05-06 19:55 | 51.63297 | -0.08935 | 7043 ft | 243 kts | 264° |
| 2026-05-06 19:55 | 51.63146 | -0.11643 | 7045 ft | 243 kts | 264° |
| 2026-05-06 19:55 | 51.62995 | -0.14347 | 7047 ft | 242 kts | 265° |
| 2026-05-06 19:55 | 51.62843 | -0.17049 | 7041 ft | 242 kts | 265° |
| 2026-05-06 19:56 | 51.62785 | -0.18085 | 7042 ft | 242 kts | 265° |
| 2026-05-06 19:56 | 51.62631 | -0.20781 | 7051 ft | 242 kts | 265° |
| 2026-05-06 19:56 | 51.62477 | -0.23479 | 7050 ft | 242 kts | 265° |
| 2026-05-06 19:57 | 51.62323 | -0.26177 | 7046 ft | 241 kts | 265° |
| 2026-05-06 19:57 | 51.62169 | -0.28864 | 7042 ft | 241 kts | 265° |
| 2026-05-06 19:57 | 51.62015 | -0.31550 | 7047 ft | 241 kts | 265° |
| 2026-05-06 19:57 | 51.61913 | -0.33329 | 7024 ft | 241 kts | 265° |
| 2026-05-06 19:58 | 51.61867 | -0.34137 | 7022 ft | 241 kts | 265° |
| 2026-05-06 19:58 | 51.61762 | -0.35954 | 7016 ft | 240 kts | 265° |
| 2026-05-06 19:59 | 51.61655 | -0.37798 | 7018 ft | 241 kts | 265° |
| 2026-05-06 19:59 | 51.61499 | -0.40482 | 7024 ft | 240 kts | 265° |
| 2026-05-06 20:00 | 51.61343 | -0.43156 | 7018 ft | 240 kts | 265° |
| 2026-05-06 20:00 | 51.61187 | -0.45832 | 7018 ft | 240 kts | 266° |
| 2026-05-06 20:00 | 51.61029 | -0.48505 | 7017 ft | 240 kts | 266° |
| 2026-05-06 20:00 | 51.60870 | -0.51172 | 7015 ft | 239 kts | 266° |
| 2026-05-06 20:01 | 51.60710 | -0.53803 | 7017 ft | 239 kts | 265° |
| 2026-05-06 20:01 | 51.60543 | -0.56473 | 7022 ft | 239 kts | 265° |
| 2026-05-06 20:01 | 51.60376 | -0.59133 | 7020 ft | 239 kts | 266° |
| 2026-05-06 20:01 | 51.60205 | -0.61791 | 7019 ft | 239 kts | 266° |
| 2026-05-06 20:02 | 51.60033 | -0.64456 | 7013 ft | 239 kts | 265° |
| 2026-05-06 20:02 | 51.59860 | -0.67109 | 6966 ft | 237 kts | 265° |
| 2026-05-06 20:02 | 51.59689 | -0.69740 | 6737 ft | 236 kts | 265° |
| 2026-05-06 20:02 | 51.59515 | -0.72368 | 6427 ft | 236 kts | 265° |
| 2026-05-06 20:03 | 51.59344 | -0.74997 | 6104 ft | 235 kts | 265° |
| 2026-05-06 20:03 | 51.59174 | -0.77578 | 5782 ft | 234 kts | 265° |
| 2026-05-06 20:03 | 51.59003 | -0.80181 | 5450 ft | 234 kts | 265° |
| 2026-05-06 20:03 | 51.58834 | -0.82776 | 5149 ft | 232 kts | 265° |
| 2026-05-06 20:04 | 51.58665 | -0.85358 | 4843 ft | 231 kts | 265° |
| 2026-05-06 20:04 | 51.58481 | -0.87923 | 4503 ft | 231 kts | 261° |
| 2026-05-06 20:04 | 51.57795 | -0.90257 | 4158 ft | 235 kts | 228° |
| 2026-05-06 20:04 | 51.56434 | -0.91621 | 4037 ft | 238 kts | 195° |
| 2026-05-06 20:05 | 51.54809 | -0.91636 | 3997 ft | 238 kts | 164° |
| 2026-05-06 20:05 | 51.53230 | -0.90819 | 3994 ft | 239 kts | 160° |
| 2026-05-06 20:05 | 51.51660 | -0.89962 | 3995 ft | 239 kts | 160° |
| 2026-05-06 20:05 | 51.50083 | -0.89096 | 3995 ft | 238 kts | 160° |
| 2026-05-06 20:06 | 51.48514 | -0.88238 | 3995 ft | 239 kts | 160° |
| 2026-05-06 20:06 | 51.46942 | -0.87381 | 3988 ft | 238 kts | 160° |
| 2026-05-06 20:06 | 51.45371 | -0.86522 | 3988 ft | 239 kts | 160° |
| 2026-05-06 20:06 | 51.43982 | -0.85136 | 4002 ft | 237 kts | 130° |
| 2026-05-06 20:07 | 51.43249 | -0.82828 | 3996 ft | 233 kts | 97° |
| 2026-05-06 20:07 | 51.43392 | -0.80302 | 3994 ft | 229 kts | 65° |
| 2026-05-06 20:07 | 51.44249 | -0.78183 | 3986 ft | 227 kts | 51° |
| 2026-05-06 20:07 | 51.45203 | -0.76191 | 3878 ft | 224 kts | 50° |
| 2026-05-06 20:08 | 51.46142 | -0.74241 | 3585 ft | 222 kts | 50° |
| 2026-05-06 20:08 | 51.47027 | -0.72193 | 3158 ft | 226 kts | 61° |
| 2026-05-06 20:08 | 51.47509 | -0.69798 | 2789 ft | 226 kts | 78° |
| 2026-05-06 20:08 | 51.47661 | -0.67289 | 2461 ft | 223 kts | 85° |
| 2026-05-06 20:09 | 51.47689 | -0.64836 | 2155 ft | 215 kts | 87° |
| 2026-05-06 20:09 | 51.47696 | -0.62621 | 1872 ft | 195 kts | 86° |
| 2026-05-06 20:09 | 51.47703 | -0.60570 | 1648 ft | 173 kts | 86° |
| 2026-05-06 20:09 | 51.47709 | -0.58765 | 1421 ft | 156 kts | 86° |
| 2026-05-06 20:10 | 51.47715 | -0.57584 | 1264 ft | 152 kts | 86° |
| 2026-05-06 20:10 | 51.47717 | -0.55986 | 1059 ft | 136 kts | 83° |
| 2026-05-06 20:10 | 51.47715 | -0.55849 | 1040 ft | 135 kts | 84° |
| 2026-05-06 20:11 | 51.47701 | -0.54747 | 852 ft | 128 kts | 86° |
| 2026-05-06 20:11 | 51.47693 | -0.53338 | 691 ft | 125 kts | 84° |
| 2026-05-06 20:11 | 51.47700 | -0.52413 | 628 ft | 125 kts | 85° |
| 2026-05-06 20:12 | 51.47703 | -0.51918 | 564 ft | 126 kts | 85° |
| 2026-05-06 20:12 | 51.47724 | -0.50510 | 398 ft | 125 kts | 85° |
| 2026-05-06 20:12 | 51.47744 | -0.49159 | 219 ft | 124 kts | 85° |
| 2026-05-06 20:13 | 51.47751 | -0.47787 | 93 ft | 118 kts | 86° |
| 2026-05-06 20:13 | 51.47749 | -0.47433 | 85 ft | 113 kts | 86° |
| 2026-05-06 20:14 | 51.47756 | -0.46450 | 90 ft | 59 kts | 90° |
| 2026-05-06 20:14 | 51.47704 | -0.46151 | 86 ft | 18 kts | 143° |
| 2026-05-06 20:14 | 51.47620 | -0.46066 | 89 ft | 10 kts | 173° |
| 2026-05-06 20:14 | 51.47594 | -0.46144 | 89 ft | 7 kts | 269° |
| 2026-05-06 20:15 | 51.47594 | -0.46176 | 90 ft | 0 kts | 269° |
| 2026-05-06 20:16 | 51.47594 | -0.46211 | 90 ft | 11 kts | 269° |
| 2026-05-06 20:16 | 51.47593 | -0.46383 | 88 ft | 11 kts | 269° |
| 2026-05-06 20:16 | 51.47592 | -0.46563 | 87 ft | 21 kts | 270° |
| 2026-05-06 20:17 | 51.47590 | -0.46810 | 87 ft | 22 kts | 265° |
| 2026-05-06 20:17 | 51.47582 | -0.47015 | 86 ft | 16 kts | 269° |
| 2026-05-06 20:17 | 51.47581 | -0.47244 | 89 ft | 21 kts | 270° |
| 2026-05-06 20:17 | 51.47581 | -0.47447 | 90 ft | 19 kts | 269° |
| 2026-05-06 20:18 | 51.47580 | -0.47692 | 88 ft | 24 kts | 270° |
| 2026-05-06 20:18 | 51.47579 | -0.47911 | 90 ft | 11 kts | 269° |
| 2026-05-06 20:18 | 51.47578 | -0.48087 | 90 ft | 21 kts | 269° |
| 2026-05-06 20:18 | 51.47578 | -0.48349 | 88 ft | 17 kts | 269° |
| 2026-05-06 20:19 | 51.47564 | -0.48477 | 92 ft | 10 kts | 218° |
| 2026-05-06 20:19 | 51.47493 | -0.48478 | 86 ft | 15 kts | 181° |
| 2026-05-06 20:19 | 51.47402 | -0.48478 | 86 ft | 11 kts | 180° |
| 2026-05-06 20:19 | 51.47359 | -0.48508 | 87 ft | 6 kts | 258° |
| 2026-05-06 20:20 | 51.47360 | -0.48563 | 87 ft | 0 kts | 271° |
| 2026-05-06 20:20 | 51.47360 | -0.48587 | 87 ft | 3 kts | 269° |
| 2026-05-06 20:20 | 51.47360 | -0.48592 | 87 ft | 0 kts | 269° |